KDDC/DDC METAR and TAF weather

Enter ICAO airport designator
Station Type Date Time Source
KDDC METAR 2020/12/01 20:52 UTC NOAA

KDDC 012052Z AUTO 03017G25KT 10SM CLR 13/M07 A2985 RMK AO2 SLP114 T01281067 55007


Station Type Date Time Source
KDDC Decoded METAR 2020/12/01 20:52 UTC NOAA

DODGE CITY REGIONAL AIRPORT, KS, United States (KDDC) 37-46N 99-58W 789M
Dec 01, 2020 - 03:52 PM EST / 2020.12.01 2052 UTC
Wind: from the NNE (030 degrees) at 20 MPH (17 KT) gusting to 29 MPH (25 KT):0
Visibility: 10 mile(s):0
Sky conditions: clear
Temperature: 55.0 F (12.8 C)
Dew Point: 19.9 F (-6.7 C)
Relative Humidity: 25%
Pressure (altimeter): 29.85 in. Hg (1010 hPa)
Pressure tendency: 0.02 inches (0.7 hPa) lower than three hours ago
ob: KDDC 012052Z AUTO 03017G25KT 10SM CLR 13/M07 A2985 RMK AO2 SLP114 T01281067 55007
cycle: 21

Station Type Date Time Source
KDDC TAF 2020/12/01 18:22 UTC NOAA

TAF KDDC 011720Z 0118/0218 34010KT P6SM SCT250
FM011900 36015G25KT P6SM BKN200
FM020900 36020G30KT P6SM OVC080
FM021100 36020G30KT P6SM OVC030
FM021400 36020G30KT P6SM OVC020

Example: see airport list